Time;durP1;ratioP1;P1;durP2;ratioP2;P2;SDS_P1;SDS_P2;PMS_P1;PMS_P2;Temp;Humidity;BMP_temperature;BMP_pressure;BME280_temperature;BME280_humidity;BME280_pressure;Samples;Min_cycle;Max_cycle;Signal;HPM_P1;HPM_P2
2022/06/23 00:01:34;;;;;;;3.85;3.40;;;;;;;;;;5059125;28;20791;-74
2022/06/23 00:04:01;;;;;;;4.13;3.38;;;;;;;;;;5058076;28;20425;-74
2022/06/23 00:06:37;;;;;;;3.58;3.20;;;;;;;;;;5058885;28;20432;-74
2022/06/23 00:09:22;;;;;;;3.80;3.40;;;;;;;;;;5059409;28;20840;-74
2022/06/23 00:11:49;;;;;;;4.30;3.90;;;;;;;;;;5060535;28;20440;-74
2022/06/23 00:14:17;;;;;;;4.43;3.42;;;;;;;;;;5056821;28;20439;-74
2022/06/23 00:16:44;;;;;;;4.03;3.63;;;;;;;;;;5059329;28;20429;-74
2022/06/23 00:19:12;;;;;;;3.95;3.53;;;;;;;;;;5057969;28;20441;-74
2022/06/23 00:21:39;;;;;;;3.70;3.40;;;;;;;;;;5056864;28;20803;-74
2022/06/23 00:24:10;;;;;;;4.30;3.70;;;;;;;;;;5058996;28;20434;-74
2022/06/23 00:26:37;;;;;;;3.95;3.65;;;;;;;;;;5057290;28;20437;-74
2022/06/23 00:29:05;;;;;;;4.07;3.67;;;;;;;;;;5058961;28;20514;-74
2022/06/23 00:31:35;;;;;;;4.00;3.70;;;;;;;;;;5059623;28;21007;-74
2022/06/23 00:34:02;;;;;;;3.90;3.50;;;;;;;;;;5058975;28;20418;-74
2022/06/23 00:36:31;;;;;;;6.50;3.55;;;;;;;;;;5057706;28;20768;-74
2022/06/23 00:38:58;;;;;;;4.90;3.70;;;;;;;;;;5058247;28;20436;-74
2022/06/23 00:41:28;;;;;;;4.20;3.80;;;;;;;;;;5059131;28;20435;-73
2022/06/23 00:43:56;;;;;;;4.32;4.00;;;;;;;;;;5058414;28;20932;-74
2022/06/23 00:46:24;;;;;;;5.55;4.47;;;;;;;;;;5057275;28;20840;-74
2022/06/23 00:48:54;;;;;;;4.55;4.15;;;;;;;;;;5058437;28;20418;-74
2022/06/23 00:51:22;;;;;;;4.72;3.90;;;;;;;;;;5058109;28;20435;-74
2022/06/23 00:53:51;;;;;;;4.07;3.78;;;;;;;;;;5062466;28;20429;-74
2022/06/23 00:56:33;;;;;;;4.27;3.87;;;;;;;;;;5061838;28;20433;-74
2022/06/23 00:59:04;;;;;;;4.82;4.43;;;;;;;;;;5061855;28;20950;-74
2022/06/23 01:01:32;;;;;;;4.20;3.80;;;;;;;;;;5063368;28;20427;-74
2022/06/23 01:04:02;;;;;;;3.95;3.60;;;;;;;;;;5061357;28;20429;-74
2022/06/23 01:06:30;;;;;;;4.53;4.00;;;;;;;;;;5061611;28;20423;-74
2022/06/23 01:08:58;;;;;;;5.03;4.63;;;;;;;;;;5061305;28;20425;-73
2022/06/23 01:11:27;;;;;;;5.55;4.70;;;;;;;;;;5061544;28;20904;-74
2022/06/23 01:13:58;;;;;;;5.60;4.40;;;;;;;;;;5060875;28;20948;-74
2022/06/23 01:16:27;;;;;;;4.83;4.43;;;;;;;;;;5061169;28;20429;-74
2022/06/23 01:18:56;;;;;;;5.90;5.30;;;;;;;;;;5060720;28;20442;-74
2022/06/23 01:21:25;;;;;;;5.90;5.30;;;;;;;;;;5062171;28;20434;-74
2022/06/23 01:23:57;;;;;;;6.15;5.50;;;;;;;;;;5062538;28;20415;-74
2022/06/23 01:26:43;;;;;;;6.10;5.50;;;;;;;;;;5062178;28;20427;-74
2022/06/23 01:29:14;;;;;;;6.15;5.55;;;;;;;;;;5061438;28;20429;-74
2022/06/23 01:31:43;;;;;;;6.10;5.50;;;;;;;;;;5062299;28;20433;-74
2022/06/23 01:34:15;;;;;;;5.93;5.05;;;;;;;;;;5061798;28;20457;-74
2022/06/23 01:36:44;;;;;;;5.40;4.90;;;;;;;;;;5062495;28;20461;-74
2022/06/23 01:39:13;;;;;;;5.55;4.70;;;;;;;;;;5061951;28;20422;-74
2022/06/23 01:41:44;;;;;;;3.97;3.60;;;;;;;;;;5060978;28;20440;-74
2022/06/23 01:44:15;;;;;;;4.80;4.40;;;;;;;;;;5061290;28;20423;-74
2022/06/23 01:46:43;;;;;;;4.90;4.00;;;;;;;;;;5061933;28;20437;-74
2022/06/23 01:49:15;;;;;;;4.75;4.25;;;;;;;;;;5060496;28;20437;-74
2022/06/23 01:51:42;;;;;;;6.10;5.57;;;;;;;;;;5061219;28;20935;-74
2022/06/23 01:54:11;;;;;;;7.03;5.18;;;;;;;;;;5060839;28;20436;-74
2022/06/23 01:56:40;;;;;;;6.40;5.53;;;;;;;;;;5062544;28;20445;-74
2022/06/23 01:59:22;;;;;;;4.47;4.07;;;;;;;;;;5061911;28;20424;-74
2022/06/23 02:01:51;;;;;;;6.68;4.60;;;;;;;;;;5061302;28;20430;-74
2022/06/23 02:04:21;;;;;;;4.50;4.10;;;;;;;;;;5059196;28;20425;-74
2022/06/23 02:06:51;;;;;;;5.43;4.40;;;;;;;;;;5060511;28;20931;-74
2022/06/23 02:09:20;;;;;;;5.00;4.60;;;;;;;;;;5061934;28;20428;-74
2022/06/23 02:11:48;;;;;;;5.18;4.25;;;;;;;;;;5060399;28;20431;-74
2022/06/23 02:14:19;;;;;;;5.38;4.35;;;;;;;;;;5060281;28;20519;-74
2022/06/23 02:16:50;;;;;;;6.13;5.30;;;;;;;;;;5059509;28;20434;-74
2022/06/23 02:19:21;;;;;;;5.85;4.65;;;;;;;;;;5060138;28;20463;-74
2022/06/23 02:21:50;;;;;;;5.30;4.80;;;;;;;;;;5060539;28;20460;-74
2022/06/23 02:24:21;;;;;;;4.95;4.50;;;;;;;;;;5059254;28;20435;-73
2022/06/23 02:26:55;;;;;;;5.78;5.00;;;;;;;;;;5061815;28;20519;-74
2022/06/23 02:29:25;;;;;;;5.15;4.65;;;;;;;;;;5060834;28;20420;-74
2022/06/23 02:31:55;;;;;;;5.20;4.70;;;;;;;;;;5060893;28;20423;-74
2022/06/23 02:34:24;;;;;;;5.35;4.85;;;;;;;;;;5059864;28;20426;-74
2022/06/23 02:36:57;;;;;;;5.90;5.40;;;;;;;;;;5061021;28;20887;-74
2022/06/23 02:39:29;;;;;;;5.68;4.45;;;;;;;;;;5059767;28;20430;-74
2022/06/23 02:41:59;;;;;;;6.50;5.30;;;;;;;;;;5060767;28;20432;-74
2022/06/23 02:44:31;;;;;;;5.45;4.75;;;;;;;;;;5058509;28;20475;-74
2022/06/23 02:47:05;;;;;;;5.18;4.68;;;;;;;;;;5060985;28;20809;-74
2022/06/23 02:49:46;;;;;;;5.00;4.50;;;;;;;;;;5060586;28;20421;-74
2022/06/23 02:52:28;;;;;;;6.00;5.38;;;;;;;;;;5059763;28;20440;-74
2022/06/23 02:55:00;;;;;;;6.03;5.43;;;;;;;;;;5060060;28;21005;-74
2022/06/23 02:57:30;;;;;;;5.50;5.00;;;;;;;;;;5060146;28;20430;-74
2022/06/23 02:59:58;;;;;;;6.53;5.30;;;;;;;;;;5060092;28;20438;-74
2022/06/23 03:02:32;;;;;;;5.80;5.30;;;;;;;;;;5059438;28;20440;-74
2022/06/23 03:05:01;;;;;;;6.20;5.60;;;;;;;;;;5060624;28;20436;-74
2022/06/23 03:07:30;;;;;;;7.90;5.68;;;;;;;;;;5057486;28;20811;-74
2022/06/23 03:10:03;;;;;;;5.70;4.97;;;;;;;;;;5061299;28;20511;-74
2022/06/23 03:12:35;;;;;;;5.57;5.07;;;;;;;;;;5059756;28;20436;-74
2022/06/23 03:15:03;;;;;;;6.20;5.28;;;;;;;;;;5059353;28;20943;-74
2022/06/23 03:17:37;;;;;;;6.70;5.30;;;;;;;;;;5059946;28;20412;-74
2022/06/23 03:20:07;;;;;;;5.25;4.75;;;;;;;;;;5059354;28;20772;-74
2022/06/23 03:22:37;;;;;;;5.45;4.95;;;;;;;;;;5058722;28;20412;-74
2022/06/23 03:25:07;;;;;;;5.45;4.95;;;;;;;;;;5059692;28;20499;-74
2022/06/23 03:27:35;;;;;;;5.50;4.90;;;;;;;;;;5058982;28;20415;-74
2022/06/23 03:30:05;;;;;;;5.28;4.78;;;;;;;;;;5059463;28;20438;-74
2022/06/23 03:32:35;;;;;;;6.20;5.60;;;;;;;;;;5059872;28;20933;-74
2022/06/23 03:35:06;;;;;;;7.00;6.30;;;;;;;;;;5059886;28;21013;-74
2022/06/23 03:37:38;;;;;;;8.98;7.15;;;;;;;;;;5058594;28;20421;-73
2022/06/23 03:43:02;;;;;;;7.88;7.07;;;;;;;;;;5059437;28;20416;-74
2022/06/23 03:45:30;;;;;;;7.50;6.13;;;;;;;;;;5057614;28;20883;-74
2022/06/23 03:48:01;;;;;;;7.38;6.68;;;;;;;;;;5058287;28;20425;-74
2022/06/23 03:50:30;;;;;;;9.85;7.88;;;;;;;;;;5060293;28;20431;-74
2022/06/23 03:52:57;;;;;;;7.97;7.17;;;;;;;;;;5059518;28;20446;-74
2022/06/23 03:55:25;;;;;;;9.80;7.38;;;;;;;;;;5056873;28;20949;-74
2022/06/23 03:57:55;;;;;;;10.23;7.35;;;;;;;;;;5058702;28;20419;-73
2022/06/23 04:00:26;;;;;;;9.30;7.10;;;;;;;;;;5057565;28;20432;-74
2022/06/23 04:02:59;;;;;;;8.65;7.00;;;;;;;;;;5058454;28;20424;-74
2022/06/23 04:05:28;;;;;;;8.55;7.68;;;;;;;;;;5059441;28;20486;-74
2022/06/23 04:07:56;;;;;;;8.65;7.85;;;;;;;;;;5057319;28;20425;-74
2022/06/23 04:10:25;;;;;;;8.48;7.57;;;;;;;;;;5059401;28;20427;-74
2022/06/23 04:12:53;;;;;;;9.55;8.55;;;;;;;;;;5059393;28;20438;-74
2022/06/23 04:15:24;;;;;;;8.85;7.95;;;;;;;;;;5059357;28;20435;-74
2022/06/23 04:17:54;;;;;;;8.27;7.47;;;;;;;;;;5058766;28;20494;-74
2022/06/23 04:20:21;;;;;;;8.43;7.53;;;;;;;;;;5058386;28;20436;-74
2022/06/23 04:22:52;;;;;;;10.27;8.60;;;;;;;;;;5059828;28;20419;-74
2022/06/23 04:25:20;;;;;;;10.48;8.23;;;;;;;;;;5058425;28;20427;-74
2022/06/23 04:27:48;;;;;;;8.77;7.87;;;;;;;;;;5058729;28;20428;-74
2022/06/23 04:30:20;;;;;;;10.25;9.20;;;;;;;;;;5061760;28;20434;-74
2022/06/23 04:32:48;;;;;;;9.40;8.50;;;;;;;;;;5059474;28;20416;-74
2022/06/23 04:35:16;;;;;;;9.93;8.68;;;;;;;;;;5061756;28;20434;-74
2022/06/23 04:37:49;;;;;;;9.80;8.55;;;;;;;;;;5059639;28;20410;-74
2022/06/23 04:40:21;;;;;;;11.50;8.90;;;;;;;;;;5062068;28;20424;-74
2022/06/23 04:42:51;;;;;;;11.40;10.20;;;;;;;;;;5060090;28;20452;-74
2022/06/23 04:45:28;;;;;;;11.73;9.98;;;;;;;;;;5063118;28;20508;-74
2022/06/23 04:47:56;;;;;;;12.52;11.23;;;;;;;;;;5060506;28;20453;-74
2022/06/23 04:50:33;;;;;;;12.68;11.30;;;;;;;;;;5060017;28;20531;-74
2022/06/23 04:53:00;;;;;;;17.40;13.73;;;;;;;;;;5061309;28;20994;-74
2022/06/23 04:55:29;;;;;;;11.93;10.63;;;;;;;;;;5062730;28;20438;-74
2022/06/23 04:58:00;;;;;;;14.02;11.75;;;;;;;;;;5061037;28;20432;-74
2022/06/23 05:00:28;;;;;;;15.15;12.30;;;;;;;;;;5061153;28;20427;-74
2022/06/23 05:02:56;;;;;;;13.30;11.90;;;;;;;;;;5061735;28;20507;-74
2022/06/23 05:05:24;;;;;;;14.75;12.30;;;;;;;;;;5060621;28;20431;-74
2022/06/23 05:07:52;;;;;;;13.52;12.20;;;;;;;;;;5061193;28;20426;-74
2022/06/23 05:10:19;;;;;;;13.68;12.27;;;;;;;;;;5062403;28;20438;-74
2022/06/23 05:12:50;;;;;;;14.45;12.38;;;;;;;;;;5062013;28;20419;-74
2022/06/23 05:15:18;;;;;;;15.30;12.57;;;;;;;;;;5062154;28;20434;-74
2022/06/23 05:17:48;;;;;;;13.70;11.75;;;;;;;;;;5061486;28;20413;-74
2022/06/23 05:20:19;;;;;;;13.85;12.45;;;;;;;;;;5062055;28;20466;-74
2022/06/23 05:22:47;;;;;;;15.93;12.15;;;;;;;;;;5062023;28;20411;-74
2022/06/23 05:25:26;;;;;;;14.40;11.45;;;;;;;;;;5061574;28;20435;-74
2022/06/23 05:27:53;;;;;;;13.88;11.23;;;;;;;;;;5062605;28;20426;-74
2022/06/23 05:30:25;;;;;;;15.47;12.07;;;;;;;;;;5062660;28;20435;-74
2022/06/23 05:32:53;;;;;;;14.02;11.35;;;;;;;;;;5061987;28;20828;-74
2022/06/23 05:35:22;;;;;;;12.10;10.65;;;;;;;;;;5062334;28;20431;-74
2022/06/23 05:37:51;;;;;;;12.20;10.90;;;;;;;;;;5062273;28;20767;-74
2022/06/23 05:40:21;;;;;;;13.05;10.57;;;;;;;;;;5062319;28;20435;-74
2022/06/23 05:42:49;;;;;;;12.20;10.90;;;;;;;;;;5090279;22;20396;-74
2022/06/23 05:45:20;;;;;;;11.57;9.75;;;;;;;;;;5077752;28;20423;-71
2022/06/23 05:47:47;;;;;;;11.60;10.40;;;;;;;;;;5081310;28;20419;-71
2022/06/23 05:50:16;;;;;;;13.50;10.70;;;;;;;;;;5081187;28;20801;-73
2022/06/23 05:52:44;;;;;;;11.97;9.40;;;;;;;;;;5080390;28;20421;-72
2022/06/23 05:55:15;;;;;;;10.98;9.38;;;;;;;;;;5079444;28;20440;-73
2022/06/23 05:57:44;;;;;;;10.45;9.35;;;;;;;;;;5075928;28;20430;-72
2022/06/23 06:00:14;;;;;;;12.88;9.45;;;;;;;;;;5077452;28;20422;-73
2022/06/23 06:02:46;;;;;;;15.02;10.80;;;;;;;;;;5075104;28;20434;-73
2022/06/23 06:05:18;;;;;;;9.85;8.85;;;;;;;;;;5074129;28;20422;-72
2022/06/23 06:07:44;;;;;;;12.52;10.68;;;;;;;;;;5076760;28;20441;-73
2022/06/23 06:10:13;;;;;;;11.30;10.10;;;;;;;;;;5078210;28;20426;-73
2022/06/23 06:12:41;;;;;;;11.07;9.98;;;;;;;;;;5079370;28;20431;-73
2022/06/23 06:15:09;;;;;;;12.40;10.93;;;;;;;;;;5078283;28;20809;-73
2022/06/23 06:17:36;;;;;;;13.27;10.55;;;;;;;;;;5077508;28;20423;-73
2022/06/23 06:20:05;;;;;;;11.30;10.20;;;;;;;;;;5080576;28;20988;-73
2022/06/23 06:22:39;;;;;;;14.13;9.98;;;;;;;;;;5078223;28;20423;-72
2022/06/23 06:25:06;;;;;;;12.43;10.40;;;;;;;;;;5077457;28;20479;-72
2022/06/23 06:27:33;;;;;;;10.95;9.93;;;;;;;;;;5080118;28;20431;-73
2022/06/23 06:29:59;;;;;;;12.10;10.90;;;;;;;;;;5080515;28;20424;-73
2022/06/23 06:32:29;;;;;;;12.23;10.48;;;;;;;;;;5079076;28;20427;-73
2022/06/23 06:34:59;;;;;;;12.57;10.43;;;;;;;;;;5077768;28;20435;-73
2022/06/23 06:37:28;;;;;;;13.47;11.07;;;;;;;;;;5079660;28;20431;-72
2022/06/23 06:39:56;;;;;;;12.40;9.18;;;;;;;;;;5079217;28;20435;-73
2022/06/23 06:42:25;;;;;;;12.88;11.10;;;;;;;;;;5079531;28;20457;-73
2022/06/23 06:44:53;;;;;;;12.73;10.40;;;;;;;;;;5078717;28;20426;-72
2022/06/23 06:47:21;;;;;;;12.03;10.40;;;;;;;;;;5079089;28;20454;-72
2022/06/23 06:49:47;;;;;;;10.80;9.70;;;;;;;;;;5077803;28;20459;-73
2022/06/23 06:52:14;;;;;;;13.10;11.07;;;;;;;;;;5078853;28;20431;-73
2022/06/23 06:54:43;;;;;;;11.98;10.70;;;;;;;;;;5078292;28;20431;-73
2022/06/23 06:57:12;;;;;;;13.77;10.13;;;;;;;;;;5076016;28;20427;-73
2022/06/23 06:59:44;;;;;;;10.55;8.80;;;;;;;;;;5078281;28;20426;-73
2022/06/23 07:02:12;;;;;;;12.38;9.50;;;;;;;;;;5078248;28;20438;-73
2022/06/23 07:04:42;;;;;;;12.70;9.15;;;;;;;;;;5079553;28;20792;-73
2022/06/23 07:07:13;;;;;;;12.82;9.90;;;;;;;;;;5081065;28;20426;-73
2022/06/23 07:09:43;;;;;;;10.75;8.88;;;;;;;;;;5080039;28;20903;-73
2022/06/23 07:12:12;;;;;;;10.88;9.70;;;;;;;;;;5079253;28;20802;-73
2022/06/23 07:14:42;;;;;;;12.10;9.70;;;;;;;;;;5079023;28;20425;-73
2022/06/23 07:17:13;;;;;;;13.73;9.23;;;;;;;;;;5080606;28;20508;-73
2022/06/23 07:19:42;;;;;;;11.35;9.10;;;;;;;;;;5078913;28;20443;-73
2022/06/23 07:22:14;;;;;;;10.68;8.70;;;;;;;;;;5078158;28;20443;-73
2022/06/23 07:24:42;;;;;;;11.80;8.85;;;;;;;;;;5079449;28;20777;-73
2022/06/23 07:27:15;;;;;;;12.30;8.90;;;;;;;;;;5078078;28;20458;-73
2022/06/23 07:29:44;;;;;;;9.30;8.30;;;;;;;;;;5076669;28;20795;-73
2022/06/23 07:32:16;;;;;;;10.60;8.30;;;;;;;;;;5077391;28;20905;-74
2022/06/23 07:34:44;;;;;;;9.55;8.05;;;;;;;;;;5079696;28;20759;-74
2022/06/23 07:37:14;;;;;;;9.65;8.00;;;;;;;;;;5077237;28;20427;-74
2022/06/23 07:39:42;;;;;;;9.63;7.83;;;;;;;;;;5079215;28;20799;-74
2022/06/23 07:42:12;;;;;;;13.53;8.73;;;;;;;;;;5077691;28;20428;-73
2022/06/23 07:44:42;;;;;;;15.48;8.82;;;;;;;;;;5075519;28;20422;-74
2022/06/23 07:47:09;;;;;;;8.55;7.45;;;;;;;;;;5077261;28;20423;-73
2022/06/23 07:49:35;;;;;;;9.55;8.05;;;;;;;;;;5077464;28;20425;-74
2022/06/23 07:52:03;;;;;;;8.18;7.28;;;;;;;;;;5078059;28;20942;-73
2022/06/23 07:54:31;;;;;;;8.65;7.75;;;;;;;;;;5075283;28;20427;-73
2022/06/23 07:56:57;;;;;;;8.70;7.80;;;;;;;;;;5079934;28;20432;-73
2022/06/23 07:59:26;;;;;;;10.15;7.65;;;;;;;;;;5074878;28;20437;-74
2022/06/23 08:01:55;;;;;;;9.65;7.63;;;;;;;;;;5079625;28;20514;-73
2022/06/23 08:04:27;;;;;;;10.23;7.87;;;;;;;;;;5096559;28;20413;-73
2022/06/23 08:06:55;;;;;;;9.95;8.40;;;;;;;;;;5090481;28;20426;-73
2022/06/23 08:09:28;;;;;;;8.73;8.02;;;;;;;;;;5088051;28;20422;-73
2022/06/23 08:14:41;;;;;;;8.93;8.00;;;;;;;;;;5093042;28;20972;-74
2022/06/23 08:17:11;;;;;;;8.43;7.00;;;;;;;;;;5091193;28;20943;-74
2022/06/23 08:19:39;;;;;;;10.50;7.78;;;;;;;;;;5093968;28;20412;-74
2022/06/23 08:22:08;;;;;;;8.70;7.50;;;;;;;;;;5089112;28;20426;-74
2022/06/23 08:24:36;;;;;;;9.75;7.80;;;;;;;;;;5088289;28;20433;-74
2022/06/23 08:27:04;;;;;;;8.80;7.90;;;;;;;;;;5081088;28;20426;-74
2022/06/23 08:29:33;;;;;;;8.90;7.90;;;;;;;;;;5087879;28;20421;-74
2022/06/23 08:32:00;;;;;;;10.30;7.90;;;;;;;;;;5085612;28;20892;-74
2022/06/23 08:34:29;;;;;;;9.40;8.50;;;;;;;;;;5087949;28;20414;-74
2022/06/23 08:36:58;;;;;;;8.27;7.47;;;;;;;;;;5095523;28;20437;-75
2022/06/23 08:39:26;;;;;;;9.00;8.10;;;;;;;;;;5087787;28;20426;-74
2022/06/23 08:41:55;;;;;;;8.03;7.23;;;;;;;;;;5089403;28;20406;-74
2022/06/23 08:44:24;;;;;;;9.90;7.82;;;;;;;;;;5081810;28;20417;-74
2022/06/23 08:46:53;;;;;;;8.90;7.20;;;;;;;;;;5084233;28;20430;-74
2022/06/23 08:49:23;;;;;;;10.40;7.10;;;;;;;;;;5079494;28;20429;-73
2022/06/23 08:51:56;;;;;;;7.90;7.10;;;;;;;;;;5085793;28;20422;-74
2022/06/23 08:54:26;;;;;;;9.10;7.40;;;;;;;;;;5087331;28;20410;-73
2022/06/23 08:56:58;;;;;;;7.85;6.78;;;;;;;;;;5083499;28;20436;-74
2022/06/23 08:59:28;;;;;;;8.70;7.17;;;;;;;;;;5087000;28;20923;-74
2022/06/23 09:02:00;;;;;;;11.00;7.20;;;;;;;;;;5087650;28;20406;-74
2022/06/23 09:04:32;;;;;;;7.90;7.10;;;;;;;;;;5094518;28;20410;-74
2022/06/23 09:07:07;;;;;;;8.70;7.78;;;;;;;;;;5088808;28;20448;-74
2022/06/23 09:09:35;;;;;;;8.13;6.30;;;;;;;;;;5098161;28;20406;-74
2022/06/23 09:12:07;;;;;;;7.82;6.50;;;;;;;;;;5093275;28;20422;-74
2022/06/23 09:14:48;;;;;;;10.00;6.50;;;;;;;;;;5091545;28;20434;-74
2022/06/23 09:17:26;;;;;;;7.40;6.70;;;;;;;;;;5100371;28;20440;-74
2022/06/23 09:20:01;;;;;;;7.03;6.03;;;;;;;;;;5097826;28;20467;-74
2022/06/23 09:22:37;;;;;;;8.30;6.40;;;;;;;;;;5082824;28;20425;-73
2022/06/23 09:25:08;;;;;;;9.45;5.60;;;;;;;;;;5086806;28;20949;-74
2022/06/23 09:27:43;;;;;;;6.05;5.45;;;;;;;;;;5087896;28;20442;-73
2022/06/23 09:30:13;;;;;;;6.00;5.20;;;;;;;;;;5088299;28;20432;-74
2022/06/23 09:32:56;;;;;;;7.17;5.40;;;;;;;;;;5085629;28;20421;-73
2022/06/23 09:35:37;;;;;;;6.95;5.60;;;;;;;;;;5091700;28;20903;-74
2022/06/23 09:38:12;;;;;;;9.20;5.50;;;;;;;;;;5088838;28;20434;-74
2022/06/23 09:40:42;;;;;;;7.38;5.68;;;;;;;;;;5092592;28;20421;-74
2022/06/23 09:43:26;;;;;;;7.90;5.90;;;;;;;;;;5088640;28;20448;-74
2022/06/23 09:46:00;;;;;;;7.40;5.40;;;;;;;;;;5095164;28;20424;-74
2022/06/23 09:48:37;;;;;;;5.50;5.00;;;;;;;;;;5088496;28;20955;-74
2022/06/23 09:51:11;;;;;;;7.53;4.65;;;;;;;;;;5087733;28;20430;-74
2022/06/23 09:53:53;;;;;;;10.10;4.72;;;;;;;;;;5087110;28;20489;-74
2022/06/23 09:56:35;;;;;;;8.35;4.93;;;;;;;;;;5087949;28;20433;-74
2022/06/23 09:59:10;;;;;;;7.70;4.45;;;;;;;;;;5084492;28;20422;-74
2022/06/23 10:01:42;;;;;;;9.17;4.87;;;;;;;;;;5085074;28;20430;-74
2022/06/23 10:04:17;;;;;;;5.57;4.03;;;;;;;;;;5086775;28;20432;-74
2022/06/23 10:06:51;;;;;;;5.80;3.97;;;;;;;;;;5093431;28;20425;-74
2022/06/23 10:09:25;;;;;;;6.25;4.72;;;;;;;;;;5090060;28;20821;-74
2022/06/23 10:11:57;;;;;;;8.80;4.85;;;;;;;;;;5090216;28;20441;-75
2022/06/23 10:14:32;;;;;;;6.30;4.70;;;;;;;;;;5080765;28;20422;-74
2022/06/23 10:17:06;;;;;;;8.90;4.65;;;;;;;;;;5093968;28;20433;-74
2022/06/23 10:19:37;;;;;;;5.70;3.95;;;;;;;;;;5097463;28;20435;-74
2022/06/23 10:22:17;;;;;;;5.65;3.90;;;;;;;;;;5091465;28;20422;-73
2022/06/23 10:24:53;;;;;;;6.72;4.50;;;;;;;;;;5094710;28;20439;-74
2022/06/23 10:27:32;;;;;;;5.20;3.70;;;;;;;;;;5086757;28;20433;-74
2022/06/23 10:30:04;;;;;;;7.53;4.30;;;;;;;;;;5085673;28;20921;-74
2022/06/23 10:32:54;;;;;;;6.00;4.18;;;;;;;;;;5082983;28;20418;-74
2022/06/23 10:35:29;;;;;;;6.30;4.30;;;;;;;;;;5064127;28;20433;-74
2022/06/23 10:38:18;;;;;;;5.57;4.00;;;;;;;;;;5088659;28;20504;-74
2022/06/23 10:41:03;;;;;;;3.85;3.50;;;;;;;;;;5086777;28;20422;-74
2022/06/23 10:43:56;;;;;;;8.27;3.90;;;;;;;;;;5089281;28;20414;-74
2022/06/23 10:46:29;;;;;;;6.50;3.90;;;;;;;;;;5032485;28;20421;-74
2022/06/23 10:49:10;;;;;;;7.57;3.70;;;;;;;;;;5095938;28;20419;-74
2022/06/23 10:51:57;;;;;;;3.97;3.67;;;;;;;;;;5095383;28;20430;-74
2022/06/23 10:54:38;;;;;;;6.33;4.20;;;;;;;;;;5045154;28;20417;-74
2022/06/23 10:57:16;;;;;;;4.80;4.30;;;;;;;;;;5091895;28;20428;-74
2022/06/23 10:59:50;;;;;;;7.15;4.10;;;;;;;;;;5090216;28;20422;-75
2022/06/23 11:02:28;;;;;;;5.65;4.05;;;;;;;;;;5088716;28;20429;-75
2022/06/23 11:05:07;;;;;;;4.13;3.60;;;;;;;;;;5090601;28;20424;-74
2022/06/23 11:07:40;;;;;;;6.97;3.93;;;;;;;;;;5083622;28;20426;-75
2022/06/23 11:10:24;;;;;;;4.60;3.80;;;;;;;;;;5088515;28;20417;-74
2022/06/23 11:12:54;;;;;;;4.70;4.00;;;;;;;;;;5093145;28;20426;-74
2022/06/23 11:15:25;;;;;;;4.30;3.88;;;;;;;;;;5090116;28;20453;-74
2022/06/23 11:18:03;;;;;;;4.22;3.83;;;;;;;;;;5095708;28;20457;-74
2022/06/23 11:20:34;;;;;;;6.40;3.90;;;;;;;;;;5086706;28;20414;-74
2022/06/23 11:23:05;;;;;;;4.47;3.83;;;;;;;;;;5099076;28;20511;-74
2022/06/23 11:25:37;;;;;;;7.45;4.10;;;;;;;;;;5085202;28;20426;-74
2022/06/23 11:28:09;;;;;;;7.25;4.75;;;;;;;;;;5094696;28;20916;-74
2022/06/23 11:30:40;;;;;;;3.88;3.55;;;;;;;;;;5090791;28;20421;-74
2022/06/23 11:33:16;;;;;;;5.57;4.03;;;;;;;;;;5100445;28;20437;-74
2022/06/23 11:35:51;;;;;;;4.15;3.70;;;;;;;;;;5099860;28;20803;-74
2022/06/23 11:38:24;;;;;;;8.32;4.28;;;;;;;;;;5097108;28;20426;-74
2022/06/23 11:41:00;;;;;;;5.20;4.33;;;;;;;;;;5096428;28;20827;-74
2022/06/23 11:43:31;;;;;;;4.40;3.67;;;;;;;;;;5083177;22;20438;-76
2022/06/23 11:46:06;;;;;;;4.57;3.90;;;;;;;;;;5071260;28;20429;-77
2022/06/23 11:48:59;;;;;;;5.63;3.95;;;;;;;;;;5068999;28;20432;-76
2022/06/23 11:51:32;;;;;;;8.30;4.22;;;;;;;;;;5022665;28;20764;-76
2022/06/23 11:54:03;;;;;;;4.90;3.60;;;;;;;;;;5070122;28;20412;-76
2022/06/23 11:56:41;;;;;;;3.92;3.60;;;;;;;;;;5063375;28;20431;-76
2022/06/23 11:59:15;;;;;;;4.97;4.03;;;;;;;;;;5068760;28;20411;-75
2022/06/23 12:01:41;;;;;;;6.13;3.50;;;;;;;;;;5065729;28;21155;-76
2022/06/23 12:04:30;;;;;;;4.45;3.95;;;;;;;;;;5069844;28;20429;-75
2022/06/23 12:07:07;;;;;;;7.90;3.90;;;;;;;;;;5068499;28;20427;-76
2022/06/23 12:09:39;;;;;;;5.05;3.83;;;;;;;;;;5062256;28;20442;-76
2022/06/23 12:12:06;;;;;;;4.68;3.83;;;;;;;;;;5069371;28;20417;-76
2022/06/23 12:14:33;;;;;;;4.95;3.70;;;;;;;;;;5072227;28;20418;-76
2022/06/23 12:17:04;;;;;;;5.90;3.40;;;;;;;;;;5062962;28;20426;-76
2022/06/23 12:19:36;;;;;;;4.22;3.80;;;;;;;;;;5080455;28;20419;-76
2022/06/23 12:22:07;;;;;;;3.95;3.55;;;;;;;;;;5072780;28;20437;-76
2022/06/23 12:24:36;;;;;;;5.22;3.60;;;;;;;;;;5076866;28;20435;-76
2022/06/23 12:27:06;;;;;;;6.22;3.70;;;;;;;;;;5071661;28;20500;-76
2022/06/23 12:29:36;;;;;;;7.10;3.90;;;;;;;;;;5078164;28;20429;-76
2022/06/23 12:32:07;;;;;;;5.10;3.83;;;;;;;;;;5070775;28;20940;-76
2022/06/23 12:34:36;;;;;;;4.25;3.85;;;;;;;;;;5072751;28;20427;-76
2022/06/23 12:37:11;;;;;;;6.03;3.72;;;;;;;;;;5076473;28;20434;-76
2022/06/23 12:39:44;;;;;;;4.22;3.40;;;;;;;;;;5074872;28;20427;-76
2022/06/23 12:42:12;;;;;;;4.00;3.42;;;;;;;;;;5066256;28;20427;-76
2022/06/23 12:44:46;;;;;;;4.50;3.35;;;;;;;;;;5076415;28;20426;-76
2022/06/23 12:47:20;;;;;;;6.03;3.17;;;;;;;;;;5070758;28;20459;-76
2022/06/23 12:50:09;;;;;;;5.50;2.90;;;;;;;;;;5081711;28;20418;-76
2022/06/23 12:52:43;;;;;;;6.10;3.40;;;;;;;;;;5079829;28;20415;-76
2022/06/23 12:55:23;;;;;;;5.15;3.60;;;;;;;;;;5069625;28;20420;-76
2022/06/23 12:57:55;;;;;;;5.20;3.50;;;;;;;;;;5072064;28;20427;-76
2022/06/23 13:00:24;;;;;;;4.55;3.13;;;;;;;;;;5071329;28;20428;-76
2022/06/23 13:02:53;;;;;;;3.90;3.30;;;;;;;;;;5069713;28;20570;-76
2022/06/23 13:05:22;;;;;;;4.40;3.20;;;;;;;;;;5079294;28;20421;-76
2022/06/23 13:07:53;;;;;;;5.88;3.35;;;;;;;;;;5073487;28;20438;-76
2022/06/23 13:10:22;;;;;;;4.53;3.05;;;;;;;;;;5077175;28;20426;-76
2022/06/23 13:12:53;;;;;;;4.40;3.20;;;;;;;;;;5076331;28;20423;-75
2022/06/23 13:15:24;;;;;;;3.90;3.50;;;;;;;;;;5085007;28;20789;-76
2022/06/23 13:17:53;;;;;;;7.93;3.35;;;;;;;;;;5080121;28;20797;-76
2022/06/23 13:20:23;;;;;;;4.53;3.20;;;;;;;;;;5063731;28;20446;-76
2022/06/23 13:22:55;;;;;;;3.22;2.88;;;;;;;;;;5072709;28;20418;-76
2022/06/23 13:25:23;;;;;;;6.40;3.10;;;;;;;;;;5069838;28;20416;-77
2022/06/23 13:27:52;;;;;;;4.20;3.17;;;;;;;;;;5071373;28;20410;-76
2022/06/23 13:30:20;;;;;;;4.55;2.80;;;;;;;;;;5071881;28;20604;-76
2022/06/23 13:32:54;;;;;;;3.40;2.90;;;;;;;;;;5073285;28;20431;-76
2022/06/23 13:35:24;;;;;;;4.28;2.80;;;;;;;;;;5070095;28;20420;-76
2022/06/23 13:37:54;;;;;;;4.90;2.95;;;;;;;;;;5073590;28;20431;-76
2022/06/23 13:40:25;;;;;;;3.70;3.15;;;;;;;;;;5067491;28;20420;-76
2022/06/23 13:42:55;;;;;;;3.65;3.22;;;;;;;;;;5071143;28;20439;-76
2022/06/23 13:45:28;;;;;;;4.53;3.33;;;;;;;;;;5067627;28;20423;-76
2022/06/23 13:47:56;;;;;;;5.45;3.30;;;;;;;;;;5070880;28;20433;-76
2022/06/23 13:50:27;;;;;;;5.60;3.40;;;;;;;;;;5077504;28;20976;-76
2022/06/23 13:52:57;;;;;;;6.13;4.38;;;;;;;;;;5069819;28;20431;-76
2022/06/23 13:55:25;;;;;;;5.40;3.40;;;;;;;;;;5070239;28;20428;-76
2022/06/23 13:57:55;;;;;;;4.30;3.00;;;;;;;;;;5065436;28;20515;-76
2022/06/23 14:00:24;;;;;;;3.70;3.20;;;;;;;;;;5063931;28;20457;-76
2022/06/23 14:02:54;;;;;;;5.20;3.00;;;;;;;;;;5069579;28;20976;-76
2022/06/23 14:05:24;;;;;;;3.67;2.80;;;;;;;;;;5071190;28;20824;-76
2022/06/23 14:07:54;;;;;;;5.55;3.78;;;;;;;;;;5068550;28;20427;-76
2022/06/23 14:10:26;;;;;;;6.00;4.15;;;;;;;;;;5069744;28;20424;-76
2022/06/23 14:12:58;;;;;;;4.60;3.22;;;;;;;;;;5053631;28;20561;-76
2022/06/23 14:15:28;;;;;;;3.13;2.83;;;;;;;;;;5067972;28;20436;-76
2022/06/23 14:17:59;;;;;;;5.63;3.83;;;;;;;;;;5064196;28;20436;-76
2022/06/23 14:20:30;;;;;;;4.53;3.63;;;;;;;;;;5074558;28;20424;-76
2022/06/23 14:22:59;;;;;;;4.90;3.70;;;;;;;;;;5073553;28;20411;-76
2022/06/23 14:25:30;;;;;;;5.10;2.90;;;;;;;;;;5067752;28;20807;-76
2022/06/23 14:27:58;;;;;;;4.78;2.63;;;;;;;;;;5069613;28;21199;-76
2022/06/23 14:30:27;;;;;;;5.93;2.53;;;;;;;;;;5072531;28;20419;-77
2022/06/23 14:32:55;;;;;;;2.60;2.40;;;;;;;;;;5073984;28;20427;-76
2022/06/23 14:35:24;;;;;;;4.20;2.60;;;;;;;;;;5072042;28;20432;-76
2022/06/23 14:37:52;;;;;;;3.42;2.72;;;;;;;;;;5075132;28;20426;-76
2022/06/23 14:40:20;;;;;;;2.83;2.60;;;;;;;;;;5069491;28;20423;-74
2022/06/23 14:43:01;;;;;;;3.33;2.30;;;;;;;;;;5067355;28;20423;-74
2022/06/23 14:45:43;;;;;;;2.40;2.20;;;;;;;;;;5068880;28;20419;-76
2022/06/23 14:48:17;;;;;;;4.47;2.50;;;;;;;;;;5069141;28;20450;-76
2022/06/23 14:50:45;;;;;;;5.32;3.05;;;;;;;;;;5070785;28;20769;-76
2022/06/23 14:53:17;;;;;;;4.00;3.00;;;;;;;;;;5067319;28;20439;-76
2022/06/23 14:55:47;;;;;;;5.80;3.40;;;;;;;;;;5075871;28;20917;-74
2022/06/23 14:58:19;;;;;;;5.40;3.40;;;;;;;;;;5066636;28;20438;-74
2022/06/23 15:00:50;;;;;;;3.08;2.70;;;;;;;;;;5069025;28;20428;-74
2022/06/23 15:03:25;;;;;;;3.22;2.70;;;;;;;;;;5062176;28;20514;-74
2022/06/23 15:05:55;;;;;;;4.30;2.80;;;;;;;;;;5061147;28;20429;-74
2022/06/23 15:08:27;;;;;;;3.35;2.50;;;;;;;;;;5066577;28;20431;-76